ETH79 HKJK-FIMP
Flight info
| Callsign | ETH79 |
|---|---|
| Flight time | N/A |
| Altitude | 35000 |
| Route | ATUDU1D GABSO UL445 DV UA401 KINAN UB790 OKDOP UA400 RASMA RASMA2E |
| Aircraft | MD11/H-SDE1E2E3FGHIJ2J3J4J5M1RWXY/LB1D1 |
Departure
| Time | 2026-04-28 15:51 |
|---|---|
| Airport | Jomo Kenyatta International Airport (HKJK) |
Arrival
| Time | N/A |
|---|---|
| Airport | Sir Seewoosagur Ramgoolam International Airport (FIMP) |
| Time | Latitude | Longitude | Altitude | Speed | Heading |
|---|---|---|---|---|---|
| 2026-04-28 15:40 | -1.33346 | 36.91606 | 5332 ft | 0 kts | 143° |
| 2026-04-28 15:42 | -1.33345 | 36.91605 | 5336 ft | 2 kts | 143° |
| 2026-04-28 15:43 | -1.33324 | 36.91590 | 5334 ft | 4 kts | 143° |
| 2026-04-28 15:43 | -1.33302 | 36.91573 | 5338 ft | 4 kts | 143° |
| 2026-04-28 15:43 | -1.33284 | 36.91559 | 5338 ft | 4 kts | 122° |
| 2026-04-28 15:43 | -1.33277 | 36.91542 | 5332 ft | 4 kts | 73° |
| 2026-04-28 15:44 | -1.33288 | 36.91521 | 5335 ft | 4 kts | 52° |
| 2026-04-28 15:44 | -1.33295 | 36.91513 | 5335 ft | 0 kts | 53° |
| 2026-04-28 15:47 | -1.33289 | 36.91520 | 5334 ft | 3 kts | 54° |
| 2026-04-28 15:47 | -1.33274 | 36.91542 | 5332 ft | 5 kts | 54° |
| 2026-04-28 15:48 | -1.33246 | 36.91581 | 5335 ft | 9 kts | 54° |
| 2026-04-28 15:48 | -1.33198 | 36.91631 | 5335 ft | 12 kts | 33° |
| 2026-04-28 15:48 | -1.33136 | 36.91694 | 5336 ft | 14 kts | 49° |
| 2026-04-28 15:48 | -1.33064 | 36.91779 | 5336 ft | 17 kts | 50° |
| 2026-04-28 15:49 | -1.33006 | 36.91812 | 5346 ft | 6 kts | 359° |
| 2026-04-28 15:49 | -1.32976 | 36.91799 | 5345 ft | 4 kts | 331° |
| 2026-04-28 15:49 | -1.32943 | 36.91780 | 5345 ft | 7 kts | 328° |
| 2026-04-28 15:49 | -1.32884 | 36.91742 | 5346 ft | 14 kts | 325° |
| 2026-04-28 15:50 | -1.32792 | 36.91675 | 5346 ft | 17 kts | 328° |
| 2026-04-28 15:50 | -1.32733 | 36.91677 | 5342 ft | 8 kts | 36° |
| 2026-04-28 15:50 | -1.32680 | 36.91746 | 5344 ft | 26 kts | 53° |
| 2026-04-28 15:50 | -1.32425 | 36.92098 | 5335 ft | 99 kts | 54° |
| 2026-04-28 15:51 | -1.31887 | 36.92828 | 5314 ft | 160 kts | 53° |
| 2026-04-28 15:51 | -1.31136 | 36.93854 | 5374 ft | 196 kts | 53° |
| 2026-04-28 15:51 | -1.30326 | 36.94987 | 5868 ft | 204 kts | 59° |
| 2026-04-28 15:51 | -1.29776 | 36.96272 | 6603 ft | 195 kts | 79° |
| 2026-04-28 15:52 | -1.29589 | 36.97624 | 7234 ft | 201 kts | 85° |
| 2026-04-28 15:52 | -1.29457 | 36.99020 | 7735 ft | 210 kts | 85° |
| 2026-04-28 15:52 | -1.29322 | 37.00486 | 8347 ft | 216 kts | 85° |
| 2026-04-28 15:52 | -1.29164 | 37.02046 | 8588 ft | 237 kts | 84° |
| 2026-04-28 15:53 | -1.29015 | 37.03748 | 8738 ft | 254 kts | 86° |
| 2026-04-28 15:53 | -1.28841 | 37.05572 | 8873 ft | 271 kts | 86° |
| 2026-04-28 15:53 | -1.28717 | 37.06854 | 8971 ft | 279 kts | 85° |
| 2026-04-28 15:53 | -1.28595 | 37.09500 | 9148 ft | 296 kts | 94° |
| 2026-04-28 15:54 | -1.28791 | 37.10859 | 9324 ft | 300 kts | 105° |
| 2026-04-28 15:54 | -1.29545 | 37.12792 | 9683 ft | 301 kts | 121° |
| 2026-04-28 15:54 | -1.30821 | 37.14468 | 10245 ft | 308 kts | 136° |
| 2026-04-28 15:54 | -1.32614 | 37.15792 | 10382 ft | 335 kts | 153° |
| 2026-04-28 15:55 | -1.34882 | 37.16626 | 10543 ft | 359 kts | 166° |
| 2026-04-28 15:55 | -1.37337 | 37.17117 | 11185 ft | 367 kts | 170° |
| 2026-04-28 15:55 | -1.39894 | 37.17527 | 11912 ft | 373 kts | 171° |
| 2026-04-28 15:55 | -1.42473 | 37.17935 | 12731 ft | 375 kts | 171° |
| 2026-04-28 15:56 | -1.45068 | 37.18360 | 13427 ft | 380 kts | 171° |
| 2026-04-28 15:56 | -1.47694 | 37.18808 | 14087 ft | 385 kts | 170° |
| 2026-04-28 15:56 | -1.50350 | 37.19275 | 14732 ft | 390 kts | 170° |
| 2026-04-28 15:56 | -1.53042 | 37.19754 | 15381 ft | 396 kts | 170° |
| 2026-04-28 15:57 | -1.55719 | 37.20238 | 15870 ft | 399 kts | 170° |
| 2026-04-28 15:57 | -1.58469 | 37.20745 | 16491 ft | 403 kts | 169° |
| 2026-04-28 15:57 | -1.61229 | 37.21242 | 16939 ft | 404 kts | 169° |
| 2026-04-28 15:57 | -1.64005 | 37.21737 | 17340 ft | 406 kts | 169° |
| 2026-04-28 15:58 | -1.66800 | 37.22262 | 17805 ft | 410 kts | 169° |
| 2026-04-28 15:58 | -1.69623 | 37.22794 | 18362 ft | 413 kts | 169° |
| 2026-04-28 15:58 | -1.72455 | 37.23314 | 18912 ft | 415 kts | 169° |
| 2026-04-28 15:58 | -1.75274 | 37.23827 | 19410 ft | 418 kts | 169° |
| 2026-04-28 15:59 | -1.78150 | 37.24348 | 19885 ft | 421 kts | 169° |
| 2026-04-28 15:59 | -1.81048 | 37.24875 | 20341 ft | 424 kts | 169° |
| 2026-04-28 15:59 | -1.83960 | 37.25405 | 20795 ft | 427 kts | 169° |
| 2026-04-28 15:59 | -1.86892 | 37.25940 | 21245 ft | 430 kts | 169° |
| 2026-04-28 16:00 | -1.89850 | 37.26480 | 21693 ft | 433 kts | 169° |
| 2026-04-28 16:00 | -1.92828 | 37.27023 | 22145 ft | 436 kts | 169° |
| 2026-04-28 16:00 | -1.95820 | 37.27571 | 22594 ft | 438 kts | 169° |
| 2026-04-28 16:00 | -1.98828 | 37.28120 | 23056 ft | 441 kts | 169° |
| 2026-04-28 16:01 | -2.01861 | 37.28674 | 23500 ft | 444 kts | 169° |
| 2026-04-28 16:01 | -2.04914 | 37.29232 | 23921 ft | 448 kts | 169° |
| 2026-04-28 16:01 | -2.07954 | 37.29788 | 24356 ft | 451 kts | 169° |
| 2026-04-28 16:01 | -2.11056 | 37.30355 | 24814 ft | 454 kts | 169° |
| 2026-04-28 16:02 | -2.14177 | 37.30925 | 25294 ft | 456 kts | 169° |
| 2026-04-28 16:02 | -2.17316 | 37.31499 | 25750 ft | 459 kts | 169° |
| 2026-04-28 16:02 | -2.20469 | 37.32076 | 26209 ft | 462 kts | 169° |
| 2026-04-28 16:02 | -2.23641 | 37.32656 | 26643 ft | 464 kts | 169° |
| 2026-04-28 16:03 | -2.26824 | 37.33237 | 27076 ft | 467 kts | 169° |
| 2026-04-28 16:03 | -2.30032 | 37.33824 | 27501 ft | 469 kts | 169° |
| 2026-04-28 16:03 | -2.33214 | 37.34406 | 27894 ft | 472 kts | 169° |
| 2026-04-28 16:03 | -2.36452 | 37.34998 | 28307 ft | 474 kts | 169° |
| 2026-04-28 16:04 | -2.39702 | 37.35592 | 28697 ft | 476 kts | 169° |
| 2026-04-28 16:04 | -2.42977 | 37.36191 | 29089 ft | 478 kts | 169° |
| 2026-04-28 16:04 | -2.46259 | 37.36792 | 29452 ft | 481 kts | 169° |
| 2026-04-28 16:04 | -2.49562 | 37.37396 | 29786 ft | 483 kts | 169° |
| 2026-04-28 16:05 | -2.52879 | 37.38013 | 30115 ft | 485 kts | 168° |
| 2026-04-28 16:05 | -2.56093 | 37.38917 | 30410 ft | 486 kts | 158° |
| 2026-04-28 16:05 | -2.59158 | 37.40364 | 30686 ft | 488 kts | 150° |
| 2026-04-28 16:05 | -2.62061 | 37.42132 | 31021 ft | 489 kts | 147° |
| 2026-04-28 16:06 | -2.64902 | 37.44013 | 31393 ft | 488 kts | 146° |
| 2026-04-28 16:06 | -2.67727 | 37.45898 | 31768 ft | 487 kts | 147° |
| 2026-04-28 16:06 | -2.70533 | 37.47733 | 32138 ft | 486 kts | 147° |
| 2026-04-28 16:06 | -2.73382 | 37.49551 | 32491 ft | 485 kts | 148° |
| 2026-04-28 16:07 | -2.76238 | 37.51340 | 32816 ft | 484 kts | 148° |
| 2026-04-28 16:07 | -2.79100 | 37.53114 | 33135 ft | 483 kts | 148° |
| 2026-04-28 16:07 | -2.84913 | 37.56466 | 33718 ft | 481 kts | 153° |
| 2026-04-28 16:08 | -2.87928 | 37.57919 | 33986 ft | 481 kts | 155° |
| 2026-04-28 16:08 | -2.90971 | 37.59304 | 34257 ft | 480 kts | 155° |
| 2026-04-28 16:08 | -2.94019 | 37.60668 | 34510 ft | 479 kts | 155° |
| 2026-04-28 16:09 | -3.00058 | 37.63390 | 34946 ft | 479 kts | 155° |
| 2026-04-28 16:09 | -3.03091 | 37.64775 | 34981 ft | 480 kts | 155° |
| 2026-04-28 16:10 | -3.12228 | 37.68981 | 34986 ft | 482 kts | 155° |
| 2026-04-28 16:10 | -3.21341 | 37.73178 | 34989 ft | 482 kts | 155° |
| 2026-04-28 16:11 | -3.33525 | 37.78798 | 34981 ft | 482 kts | 155° |
| 2026-04-28 16:12 | -3.42632 | 37.82990 | 35005 ft | 482 kts | 155° |
| 2026-04-28 16:13 | -3.51768 | 37.87202 | 34964 ft | 481 kts | 155° |
| 2026-04-28 16:14 | -3.64334 | 37.91755 | 34954 ft | 481 kts | 166° |
| 2026-04-28 16:15 | -3.77264 | 37.95049 | 34949 ft | 480 kts | 165° |
| 2026-04-28 16:15 | -3.83726 | 37.96791 | 34943 ft | 480 kts | 163° |
| 2026-04-28 16:16 | -3.93055 | 38.00332 | 34941 ft | 480 kts | 158° |
| 2026-04-28 16:17 | -4.02344 | 38.04160 | 34936 ft | 480 kts | 158° |
| 2026-04-28 16:17 | -4.08543 | 38.06668 | 34937 ft | 480 kts | 158° |
| 2026-04-28 16:18 | -4.14725 | 38.09150 | 34928 ft | 481 kts | 158° |
| 2026-04-28 16:18 | -4.20930 | 38.11648 | 34924 ft | 481 kts | 158° |
| 2026-04-28 16:19 | -4.27152 | 38.14154 | 34925 ft | 480 kts | 158° |
| 2026-04-28 16:19 | -4.33324 | 38.16639 | 34917 ft | 480 kts | 158° |
| 2026-04-28 16:20 | -4.39544 | 38.19144 | 34915 ft | 480 kts | 158° |
| 2026-04-28 16:20 | -4.45758 | 38.21648 | 34915 ft | 480 kts | 158° |
| 2026-04-28 16:21 | -4.51926 | 38.24134 | 34909 ft | 480 kts | 158° |
| 2026-04-28 16:21 | -4.58134 | 38.26635 | 34905 ft | 480 kts | 158° |
| 2026-04-28 16:22 | -4.64343 | 38.29138 | 34906 ft | 480 kts | 158° |
| 2026-04-28 16:22 | -4.70504 | 38.31622 | 34906 ft | 480 kts | 159° |
| 2026-04-28 16:23 | -4.76707 | 38.34125 | 34900 ft | 480 kts | 159° |
| 2026-04-28 16:23 | -4.82902 | 38.36622 | 34897 ft | 479 kts | 158° |
| 2026-04-28 16:24 | -4.89095 | 38.39120 | 34896 ft | 479 kts | 158° |
| 2026-04-28 16:24 | -4.95249 | 38.41603 | 34896 ft | 479 kts | 158° |
| 2026-04-28 16:25 | -5.01434 | 38.44102 | 34898 ft | 479 kts | 158° |
| 2026-04-28 16:25 | -5.07623 | 38.46599 | 34898 ft | 478 kts | 158° |
| 2026-04-28 16:26 | -5.13808 | 38.49088 | 34889 ft | 478 kts | 158° |
| 2026-04-28 16:26 | -5.19953 | 38.51561 | 34888 ft | 478 kts | 158° |
| 2026-04-28 16:27 | -5.26139 | 38.54052 | 34888 ft | 478 kts | 158° |
| 2026-04-28 16:28 | -5.35414 | 38.57792 | 34887 ft | 478 kts | 158° |
| 2026-04-28 16:28 | -5.41592 | 38.60282 | 34888 ft | 479 kts | 158° |
| 2026-04-28 16:29 | -5.50826 | 38.64004 | 34879 ft | 477 kts | 158° |
| 2026-04-28 16:30 | -5.60080 | 38.67732 | 34877 ft | 477 kts | 158° |
| 2026-04-28 16:30 | -5.66250 | 38.70221 | 34878 ft | 477 kts | 158° |
| 2026-04-28 16:31 | -5.72417 | 38.72710 | 34878 ft | 477 kts | 158° |
| 2026-04-28 16:31 | -5.78587 | 38.75200 | 34871 ft | 477 kts | 158° |
| 2026-04-28 16:32 | -5.84711 | 38.77675 | 34869 ft | 477 kts | 158° |
| 2026-04-28 16:32 | -5.93966 | 38.81409 | 34871 ft | 477 kts | 158° |
| 2026-04-28 16:33 | -5.98090 | 38.83076 | 34868 ft | 477 kts | 158° |
| 2026-04-28 16:33 | -6.06302 | 38.86396 | 34863 ft | 477 kts | 158° |
| 2026-04-28 16:34 | -6.12440 | 38.88877 | 34861 ft | 478 kts | 158° |
| 2026-04-28 16:34 | -6.18617 | 38.91371 | 34860 ft | 478 kts | 158° |
| 2026-04-28 16:35 | -6.24793 | 38.93868 | 34860 ft | 478 kts | 159° |
| 2026-04-28 16:35 | -6.30931 | 38.96353 | 34869 ft | 478 kts | 158° |
| 2026-04-28 16:36 | -6.37117 | 38.98854 | 34869 ft | 479 kts | 159° |
| 2026-04-28 16:36 | -6.43295 | 39.01353 | 34869 ft | 479 kts | 158° |
| 2026-04-28 16:37 | -6.49480 | 39.03858 | 34877 ft | 479 kts | 159° |
| 2026-04-28 16:38 | -6.58726 | 39.07600 | 34887 ft | 479 kts | 159° |
| 2026-04-28 16:38 | -6.64911 | 39.10107 | 34896 ft | 479 kts | 159° |
| 2026-04-28 16:39 | -6.71107 | 39.12616 | 34905 ft | 479 kts | 159° |
| 2026-04-28 16:39 | -6.77266 | 39.15111 | 34906 ft | 479 kts | 159° |
| 2026-04-28 16:40 | -6.83462 | 39.17624 | 34906 ft | 479 kts | 159° |
| 2026-04-28 16:40 | -6.89645 | 39.20146 | 34915 ft | 479 kts | 156° |
| 2026-04-28 16:41 | -6.95320 | 39.23660 | 34915 ft | 480 kts | 142° |
| 2026-04-28 16:41 | -7.00371 | 39.28030 | 34915 ft | 482 kts | 140° |
| 2026-04-28 16:42 | -7.05422 | 39.32470 | 34915 ft | 482 kts | 140° |
| 2026-04-28 16:42 | -7.10543 | 39.36825 | 34915 ft | 481 kts | 141° |
| 2026-04-28 16:43 | -7.15659 | 39.41114 | 34916 ft | 482 kts | 141° |
| 2026-04-28 16:43 | -7.20824 | 39.45436 | 34915 ft | 482 kts | 141° |
| 2026-04-28 16:44 | -7.25982 | 39.49757 | 34917 ft | 482 kts | 141° |
| 2026-04-28 16:44 | -7.31135 | 39.54083 | 34915 ft | 482 kts | 141° |
| 2026-04-28 16:45 | -7.36285 | 39.58406 | 34914 ft | 482 kts | 141° |
| 2026-04-28 16:45 | -7.41418 | 39.62713 | 34915 ft | 482 kts | 141° |
| 2026-04-28 16:46 | -7.45705 | 39.66312 | 34914 ft | 482 kts | 141° |
| 2026-04-28 16:46 | -7.50869 | 39.70652 | 34918 ft | 482 kts | 141° |
| 2026-04-28 16:47 | -7.56020 | 39.74981 | 34916 ft | 482 kts | 141° |
| 2026-04-28 16:47 | -7.61177 | 39.79314 | 34916 ft | 482 kts | 141° |
| 2026-04-28 16:48 | -7.66328 | 39.83647 | 34923 ft | 482 kts | 141° |
| 2026-04-28 16:48 | -7.71454 | 39.87961 | 34921 ft | 482 kts | 141° |
| 2026-04-28 16:49 | -7.76610 | 39.92298 | 34919 ft | 482 kts | 141° |
| 2026-04-28 16:49 | -7.81754 | 39.96628 | 34916 ft | 482 kts | 141° |
| 2026-04-28 16:50 | -7.86907 | 40.00966 | 34921 ft | 482 kts | 141° |
| 2026-04-28 16:50 | -7.92033 | 40.05284 | 34924 ft | 482 kts | 141° |
| 2026-04-28 16:51 | -7.97188 | 40.09627 | 34926 ft | 482 kts | 141° |
| 2026-04-28 16:51 | -8.02308 | 40.13943 | 34924 ft | 482 kts | 142° |
| 2026-04-28 16:52 | -8.07452 | 40.18279 | 34922 ft | 482 kts | 141° |
| 2026-04-28 16:52 | -8.12599 | 40.22619 | 34915 ft | 481 kts | 141° |
| 2026-04-28 16:53 | -8.17739 | 40.26950 | 34914 ft | 481 kts | 141° |
| 2026-04-28 16:53 | -8.22897 | 40.31277 | 34914 ft | 481 kts | 141° |
| 2026-04-28 16:54 | -8.28061 | 40.35598 | 34916 ft | 481 kts | 141° |
| 2026-04-28 16:54 | -8.33181 | 40.39882 | 34918 ft | 481 kts | 141° |
| 2026-04-28 16:55 | -8.38337 | 40.44199 | 34915 ft | 481 kts | 141° |
| 2026-04-28 16:55 | -8.43497 | 40.48520 | 34915 ft | 481 kts | 141° |
| 2026-04-28 16:56 | -8.48650 | 40.52836 | 34915 ft | 481 kts | 141° |
| 2026-04-28 16:56 | -8.53799 | 40.57152 | 34922 ft | 480 kts | 141° |
| 2026-04-28 16:57 | -8.58910 | 40.61438 | 34924 ft | 480 kts | 141° |
| 2026-04-28 16:57 | -8.64056 | 40.65755 | 34924 ft | 479 kts | 141° |
| 2026-04-28 16:58 | -8.69193 | 40.70070 | 34926 ft | 480 kts | 141° |
| 2026-04-28 16:58 | -8.74328 | 40.74378 | 34924 ft | 479 kts | 141° |
| 2026-04-28 16:59 | -8.79429 | 40.78659 | 34923 ft | 480 kts | 141° |
| 2026-04-28 16:59 | -8.84569 | 40.82980 | 34926 ft | 480 kts | 141° |
| 2026-04-28 17:00 | -8.89701 | 40.87296 | 34926 ft | 479 kts | 141° |
| 2026-04-28 17:00 | -8.94829 | 40.91610 | 34923 ft | 479 kts | 141° |
| 2026-04-28 17:01 | -8.99921 | 40.95893 | 34923 ft | 479 kts | 141° |
| 2026-04-28 17:01 | -9.05050 | 41.00211 | 34927 ft | 479 kts | 141° |
| 2026-04-28 17:02 | -9.10187 | 41.04534 | 34923 ft | 479 kts | 141° |
| 2026-04-28 17:02 | -9.15279 | 41.08817 | 34923 ft | 479 kts | 141° |
| 2026-04-28 17:03 | -9.22956 | 41.15284 | 34931 ft | 477 kts | 141° |
| 2026-04-28 17:03 | -9.28063 | 41.19590 | 34936 ft | 477 kts | 141° |
| 2026-04-28 17:04 | -9.35688 | 41.26017 | 34933 ft | 477 kts | 141° |
| 2026-04-28 17:05 | -9.43339 | 41.32482 | 34933 ft | 477 kts | 140° |
| 2026-04-28 17:06 | -9.50953 | 41.38962 | 34933 ft | 476 kts | 140° |
| 2026-04-28 17:06 | -9.58541 | 41.45414 | 34924 ft | 476 kts | 140° |
| 2026-04-28 17:07 | -9.63605 | 41.49719 | 34924 ft | 475 kts | 140° |
| 2026-04-28 17:07 | -9.68664 | 41.54026 | 34925 ft | 474 kts | 140° |
| 2026-04-28 17:08 | -9.73686 | 41.58303 | 34925 ft | 474 kts | 140° |
| 2026-04-28 17:08 | -9.78735 | 41.62602 | 34925 ft | 473 kts | 140° |
| 2026-04-28 17:09 | -9.83779 | 41.66902 | 34924 ft | 473 kts | 140° |
| 2026-04-28 17:09 | -9.88795 | 41.71176 | 34924 ft | 474 kts | 140° |
| 2026-04-28 17:10 | -9.93842 | 41.75480 | 34924 ft | 473 kts | 140° |
| 2026-04-28 17:10 | -9.98875 | 41.79777 | 34924 ft | 472 kts | 140° |
| 2026-04-28 17:11 | -10.03908 | 41.84070 | 34924 ft | 472 kts | 140° |
| 2026-04-28 17:11 | -10.08936 | 41.88367 | 34925 ft | 472 kts | 140° |
| 2026-04-28 17:12 | -10.13937 | 41.92643 | 34929 ft | 472 kts | 140° |
| 2026-04-28 17:12 | -10.18978 | 41.96951 | 34924 ft | 472 kts | 140° |
| 2026-04-28 17:13 | -10.23975 | 42.01222 | 34924 ft | 473 kts | 140° |
| 2026-04-28 17:13 | -10.29017 | 42.05533 | 34924 ft | 472 kts | 140° |
| 2026-04-28 17:14 | -10.34048 | 42.09838 | 34923 ft | 472 kts | 140° |
| 2026-04-28 17:14 | -10.39041 | 42.14114 | 34927 ft | 472 kts | 140° |
| 2026-04-28 17:15 | -10.44071 | 42.18423 | 34923 ft | 472 kts | 140° |
| 2026-04-28 17:15 | -10.49110 | 42.22740 | 34923 ft | 473 kts | 140° |
| 2026-04-28 17:16 | -10.54135 | 42.27048 | 34928 ft | 473 kts | 140° |
| 2026-04-28 17:16 | -10.59127 | 42.31328 | 34926 ft | 473 kts | 140° |
| 2026-04-28 17:17 | -10.64157 | 42.35644 | 34927 ft | 473 kts | 140° |
| 2026-04-28 17:17 | -10.69186 | 42.39960 | 34915 ft | 473 kts | 140° |
| 2026-04-28 17:18 | -10.74211 | 42.44283 | 34919 ft | 472 kts | 140° |
| 2026-04-28 17:18 | -10.79179 | 42.48589 | 34914 ft | 472 kts | 138° |
| 2026-04-28 17:19 | -10.83802 | 42.53337 | 34915 ft | 472 kts | 133° |
| 2026-04-28 17:19 | -10.88233 | 42.58289 | 34915 ft | 473 kts | 133° |
| 2026-04-28 17:20 | -10.91923 | 42.62409 | 34915 ft | 473 kts | 133° |
| 2026-04-28 17:20 | -10.97116 | 42.68151 | 34915 ft | 473 kts | 133° |
| 2026-04-28 17:21 | -11.01587 | 42.73079 | 34915 ft | 473 kts | 133° |
| 2026-04-28 17:22 | -11.08268 | 42.80441 | 34915 ft | 473 kts | 133° |
| 2026-04-28 17:22 | -11.12740 | 42.85372 | 34914 ft | 473 kts | 133° |
| 2026-04-28 17:23 | -11.19456 | 42.92783 | 34915 ft | 473 kts | 133° |
| 2026-04-28 17:23 | -11.23899 | 42.97689 | 34915 ft | 473 kts | 133° |
| 2026-04-28 17:24 | -11.28380 | 43.02636 | 34915 ft | 473 kts | 133° |
| 2026-04-28 17:24 | -11.32817 | 43.07545 | 34915 ft | 474 kts | 133° |
| 2026-04-28 17:25 | -11.39519 | 43.14964 | 34915 ft | 473 kts | 133° |
| 2026-04-28 17:26 | -11.43942 | 43.19863 | 34915 ft | 473 kts | 133° |
| 2026-04-28 17:26 | -11.48397 | 43.24800 | 34915 ft | 473 kts | 133° |
| 2026-04-28 17:27 | -11.52857 | 43.29740 | 34916 ft | 473 kts | 133° |
| 2026-04-28 17:27 | -11.57071 | 43.34887 | 34916 ft | 473 kts | 126° |
| 2026-04-28 17:28 | -11.60695 | 43.40454 | 34914 ft | 474 kts | 123° |
| 2026-04-28 17:28 | -11.66029 | 43.48946 | 34915 ft | 474 kts | 124° |
| 2026-04-28 17:29 | -11.69640 | 43.54581 | 34919 ft | 474 kts | 124° |
| 2026-04-28 17:30 | -11.75041 | 43.62968 | 34915 ft | 473 kts | 124° |
| 2026-04-28 17:30 | -11.80454 | 43.71388 | 34915 ft | 473 kts | 124° |
| 2026-04-28 17:31 | -11.85866 | 43.79816 | 34914 ft | 473 kts | 124° |
| 2026-04-28 17:32 | -11.91249 | 43.88210 | 34917 ft | 473 kts | 124° |
| 2026-04-28 17:32 | -11.94852 | 43.93830 | 34914 ft | 473 kts | 124° |
| 2026-04-28 17:33 | -11.98457 | 43.99456 | 34915 ft | 473 kts | 124° |
| 2026-04-28 17:33 | -12.00844 | 44.03182 | 34915 ft | 473 kts | 124° |
| 2026-04-28 17:34 | -12.05627 | 44.10670 | 34914 ft | 473 kts | 124° |
| 2026-04-28 17:34 | -12.09223 | 44.16303 | 34916 ft | 473 kts | 124° |
| 2026-04-28 17:35 | -12.12825 | 44.21938 | 34915 ft | 473 kts | 124° |
| 2026-04-28 17:35 | -12.16423 | 44.27569 | 34915 ft | 473 kts | 124° |
| 2026-04-28 17:36 | -12.20019 | 44.33200 | 34910 ft | 473 kts | 124° |
| 2026-04-28 17:36 | -12.23597 | 44.38807 | 34920 ft | 473 kts | 124° |
| 2026-04-28 17:37 | -12.27191 | 44.44445 | 34916 ft | 473 kts | 124° |
| 2026-04-28 17:37 | -12.30791 | 44.50093 | 34915 ft | 473 kts | 124° |
| 2026-04-28 17:38 | -12.34363 | 44.55701 | 34917 ft | 473 kts | 124° |
| 2026-04-28 17:38 | -12.37954 | 44.61342 | 34917 ft | 473 kts | 124° |
| 2026-04-28 17:39 | -12.41541 | 44.66984 | 34915 ft | 472 kts | 124° |
| 2026-04-28 17:40 | -12.46318 | 44.74496 | 34915 ft | 473 kts | 124° |
| 2026-04-28 17:40 | -12.49897 | 44.80139 | 34915 ft | 472 kts | 124° |
| 2026-04-28 17:41 | -12.53482 | 44.85795 | 34915 ft | 473 kts | 124° |
| 2026-04-28 17:41 | -12.57043 | 44.91409 | 34915 ft | 473 kts | 124° |
| 2026-04-28 17:42 | -12.60629 | 44.97064 | 34915 ft | 473 kts | 124° |
| 2026-04-28 17:42 | -12.64211 | 45.02717 | 34916 ft | 473 kts | 124° |
| 2026-04-28 17:43 | -12.67776 | 45.08345 | 34915 ft | 473 kts | 124° |
| 2026-04-28 17:43 | -12.71349 | 45.13990 | 34915 ft | 472 kts | 124° |
| 2026-04-28 17:44 | -12.74923 | 45.19640 | 34919 ft | 472 kts | 124° |
| 2026-04-28 17:44 | -12.78844 | 45.25030 | 34915 ft | 471 kts | 131° |
| 2026-04-28 17:45 | -12.83101 | 45.30068 | 34934 ft | 470 kts | 132° |
| 2026-04-28 17:45 | -12.87416 | 45.35113 | 34932 ft | 471 kts | 131° |
| 2026-04-28 17:46 | -12.91704 | 45.40194 | 34933 ft | 471 kts | 131° |
| 2026-04-28 17:46 | -12.95981 | 45.45295 | 34934 ft | 471 kts | 131° |
| 2026-04-28 17:47 | -13.00254 | 45.50401 | 34934 ft | 471 kts | 131° |
| 2026-04-28 17:47 | -13.04506 | 45.55478 | 34934 ft | 471 kts | 131° |
| 2026-04-28 17:48 | -13.08785 | 45.60595 | 34934 ft | 472 kts | 131° |
| 2026-04-28 17:48 | -13.13062 | 45.65708 | 34934 ft | 471 kts | 131° |
| 2026-04-28 17:49 | -13.17301 | 45.70782 | 34934 ft | 472 kts | 131° |
| 2026-04-28 17:49 | -13.21582 | 45.75907 | 34934 ft | 472 kts | 131° |
| 2026-04-28 17:50 | -13.25864 | 45.81037 | 34934 ft | 472 kts | 131° |
| 2026-04-28 17:50 | -13.30141 | 45.86161 | 34934 ft | 472 kts | 131° |
| 2026-04-28 17:51 | -13.34414 | 45.91297 | 34934 ft | 473 kts | 131° |
| 2026-04-28 17:51 | -13.38687 | 45.96431 | 34934 ft | 473 kts | 131° |
| 2026-04-28 17:52 | -13.42945 | 46.01546 | 34928 ft | 473 kts | 131° |
| 2026-04-28 17:52 | -13.49358 | 46.09259 | 34925 ft | 473 kts | 131° |
| 2026-04-28 17:53 | -13.53613 | 46.14373 | 34925 ft | 473 kts | 131° |
| 2026-04-28 17:53 | -13.57887 | 46.19514 | 34925 ft | 473 kts | 131° |
| 2026-04-28 17:54 | -13.62167 | 46.24653 | 34924 ft | 473 kts | 131° |
| 2026-04-28 17:54 | -13.66455 | 46.29788 | 34925 ft | 473 kts | 131° |
| 2026-04-28 17:55 | -13.70748 | 46.34928 | 34918 ft | 473 kts | 131° |
| 2026-04-28 17:55 | -13.75041 | 46.40071 | 34924 ft | 473 kts | 131° |
| 2026-04-28 17:56 | -13.79297 | 46.45176 | 34924 ft | 472 kts | 131° |
| 2026-04-28 17:56 | -13.83591 | 46.50325 | 34925 ft | 473 kts | 131° |
| 2026-04-28 17:57 | -13.87845 | 46.55431 | 34925 ft | 472 kts | 131° |
| 2026-04-28 17:57 | -13.92123 | 46.60567 | 34926 ft | 472 kts | 131° |
| 2026-04-28 17:58 | -13.96400 | 46.65707 | 34924 ft | 472 kts | 131° |
| 2026-04-28 17:58 | -14.00674 | 46.70844 | 34926 ft | 471 kts | 131° |
| 2026-04-28 17:59 | -14.04945 | 46.75987 | 34918 ft | 473 kts | 131° |
| 2026-04-28 17:59 | -14.09204 | 46.81118 | 34916 ft | 473 kts | 131° |
| 2026-04-28 18:00 | -14.13490 | 46.86286 | 34914 ft | 473 kts | 131° |
| 2026-04-28 18:00 | -14.17761 | 46.91446 | 34918 ft | 473 kts | 131° |
| 2026-04-28 18:01 | -14.22007 | 46.96576 | 34907 ft | 473 kts | 131° |
| 2026-04-28 18:01 | -14.26294 | 47.01749 | 34906 ft | 473 kts | 131° |
| 2026-04-28 18:02 | -14.30569 | 47.06912 | 34906 ft | 473 kts | 131° |
| 2026-04-28 18:02 | -14.34840 | 47.12076 | 34906 ft | 473 kts | 131° |
| 2026-04-28 18:03 | -14.39089 | 47.17217 | 34906 ft | 473 kts | 131° |
| 2026-04-28 18:03 | -14.43365 | 47.22392 | 34906 ft | 473 kts | 131° |
| 2026-04-28 18:04 | -14.47609 | 47.27531 | 34906 ft | 472 kts | 131° |
| 2026-04-28 18:04 | -14.51884 | 47.32707 | 34906 ft | 473 kts | 131° |
| 2026-04-28 18:05 | -14.55425 | 47.37003 | 34906 ft | 473 kts | 131° |
| 2026-04-28 18:05 | -14.60408 | 47.43052 | 34906 ft | 472 kts | 131° |
| 2026-04-28 18:06 | -14.64638 | 47.48188 | 34906 ft | 472 kts | 131° |
| 2026-04-28 18:06 | -14.68896 | 47.53368 | 34906 ft | 473 kts | 131° |
| 2026-04-28 18:07 | -14.73148 | 47.58553 | 34906 ft | 473 kts | 131° |
| 2026-04-28 18:07 | -14.77405 | 47.63734 | 34906 ft | 473 kts | 131° |
| 2026-04-28 18:08 | -14.81660 | 47.68914 | 34906 ft | 473 kts | 131° |
| 2026-04-28 18:08 | -14.85896 | 47.74074 | 34907 ft | 473 kts | 131° |
| 2026-04-28 18:09 | -14.90151 | 47.79265 | 34906 ft | 473 kts | 131° |
| 2026-04-28 18:09 | -14.94414 | 47.84464 | 34906 ft | 474 kts | 131° |
| 2026-04-28 18:10 | -14.98682 | 47.89673 | 34907 ft | 474 kts | 131° |
| 2026-04-28 18:10 | -15.02917 | 47.94847 | 34906 ft | 474 kts | 131° |
| 2026-04-28 18:11 | -15.07183 | 48.00060 | 34906 ft | 474 kts | 131° |
| 2026-04-28 18:11 | -15.11447 | 48.05277 | 34906 ft | 473 kts | 131° |
| 2026-04-28 18:12 | -15.15679 | 48.10457 | 34906 ft | 473 kts | 131° |
| 2026-04-28 18:12 | -15.19928 | 48.15661 | 34906 ft | 473 kts | 131° |
| 2026-04-28 18:13 | -15.24158 | 48.20856 | 34914 ft | 474 kts | 131° |
| 2026-04-28 18:13 | -15.28406 | 48.26077 | 34914 ft | 474 kts | 131° |
| 2026-04-28 18:14 | -15.32667 | 48.31311 | 34915 ft | 474 kts | 131° |
| 2026-04-28 18:14 | -15.36923 | 48.36537 | 34907 ft | 474 kts | 131° |
| 2026-04-28 18:15 | -15.41160 | 48.41742 | 34920 ft | 477 kts | 131° |
| 2026-04-28 18:15 | -15.45460 | 48.47029 | 34923 ft | 481 kts | 131° |
| 2026-04-28 18:16 | -15.49779 | 48.52348 | 34923 ft | 482 kts | 131° |
| 2026-04-28 18:16 | -15.54100 | 48.57673 | 34923 ft | 482 kts | 131° |
| 2026-04-28 18:17 | -15.58397 | 48.62972 | 34925 ft | 482 kts | 131° |
| 2026-04-28 18:17 | -15.62717 | 48.68301 | 34926 ft | 482 kts | 131° |
| 2026-04-28 18:18 | -15.67037 | 48.73634 | 34926 ft | 482 kts | 131° |
| 2026-04-28 18:18 | -15.70627 | 48.78068 | 34937 ft | 481 kts | 131° |
| 2026-04-28 18:19 | -15.75631 | 48.84257 | 34981 ft | 481 kts | 131° |
| 2026-04-28 18:19 | -15.79925 | 48.89582 | 34986 ft | 480 kts | 131° |
| 2026-04-28 18:20 | -15.84218 | 48.94901 | 34971 ft | 480 kts | 131° |
| 2026-04-28 18:20 | -15.88506 | 49.00215 | 34972 ft | 480 kts | 131° |
| 2026-04-28 18:21 | -15.92791 | 49.05526 | 34980 ft | 479 kts | 131° |
| 2026-04-28 18:21 | -15.97075 | 49.10843 | 34980 ft | 479 kts | 131° |
| 2026-04-28 18:22 | -16.01322 | 49.16117 | 34981 ft | 478 kts | 131° |
| 2026-04-28 18:22 | -16.05596 | 49.21435 | 34979 ft | 480 kts | 131° |
| 2026-04-28 18:23 | -16.09879 | 49.26764 | 34981 ft | 480 kts | 131° |
| 2026-04-28 18:23 | -16.14161 | 49.32092 | 34999 ft | 479 kts | 131° |
| 2026-04-28 18:24 | -16.17718 | 49.36520 | 34998 ft | 479 kts | 131° |
| 2026-04-28 18:24 | -16.22712 | 49.42739 | 34978 ft | 479 kts | 131° |
| 2026-04-28 18:25 | -16.26953 | 49.48029 | 34966 ft | 478 kts | 131° |
| 2026-04-28 18:26 | -16.33344 | 49.56011 | 34969 ft | 478 kts | 131° |
| 2026-04-28 18:26 | -16.37608 | 49.61337 | 34971 ft | 478 kts | 131° |
| 2026-04-28 18:27 | -16.41837 | 49.66623 | 34971 ft | 478 kts | 131° |
| 2026-04-28 18:27 | -16.46096 | 49.71953 | 34970 ft | 478 kts | 131° |
| 2026-04-28 18:28 | -16.50352 | 49.77284 | 34971 ft | 478 kts | 131° |
| 2026-04-28 18:28 | -16.54609 | 49.82618 | 34970 ft | 479 kts | 131° |
| 2026-04-28 18:29 | -16.58863 | 49.87963 | 34972 ft | 478 kts | 131° |
| 2026-04-28 18:29 | -16.63114 | 49.93309 | 34979 ft | 479 kts | 131° |
| 2026-04-28 18:30 | -16.67343 | 49.98622 | 34980 ft | 479 kts | 131° |
| 2026-04-28 18:30 | -16.71598 | 50.03975 | 34979 ft | 477 kts | 131° |
| 2026-04-28 18:31 | -16.75121 | 50.08413 | 34979 ft | 477 kts | 131° |
| 2026-04-28 18:31 | -16.79347 | 50.13729 | 34980 ft | 477 kts | 131° |
| 2026-04-28 18:32 | -16.83592 | 50.19074 | 34979 ft | 477 kts | 131° |
| 2026-04-28 18:32 | -16.87841 | 50.24424 | 34980 ft | 478 kts | 131° |
| 2026-04-28 18:33 | -16.92084 | 50.29777 | 34980 ft | 478 kts | 131° |
| 2026-04-28 18:33 | -16.96326 | 50.35133 | 34980 ft | 478 kts | 131° |
| 2026-04-28 18:34 | -17.00542 | 50.40460 | 34980 ft | 478 kts | 131° |
| 2026-04-28 18:34 | -17.04791 | 50.45833 | 34980 ft | 479 kts | 131° |
| 2026-04-28 18:35 | -17.09033 | 50.51201 | 34980 ft | 479 kts | 131° |
| 2026-04-28 18:35 | -17.13254 | 50.56545 | 34980 ft | 478 kts | 131° |
| 2026-04-28 18:36 | -17.17497 | 50.61923 | 34980 ft | 478 kts | 131° |
| 2026-04-28 18:36 | -17.21733 | 50.67299 | 34980 ft | 479 kts | 131° |
| 2026-04-28 18:37 | -17.25966 | 50.72689 | 34979 ft | 479 kts | 131° |
| 2026-04-28 18:37 | -17.30201 | 50.78078 | 34981 ft | 479 kts | 131° |
| 2026-04-28 18:38 | -17.34408 | 50.83424 | 34982 ft | 479 kts | 131° |
| 2026-04-28 18:38 | -17.38642 | 50.88808 | 34980 ft | 479 kts | 131° |
| 2026-04-28 18:39 | -17.42871 | 50.94197 | 34981 ft | 478 kts | 131° |
| 2026-04-28 18:39 | -17.47087 | 50.99579 | 34979 ft | 478 kts | 131° |
| 2026-04-28 18:40 | -17.51305 | 51.04969 | 34980 ft | 478 kts | 131° |
| 2026-04-28 18:40 | -17.55532 | 51.10367 | 34981 ft | 478 kts | 131° |
| 2026-04-28 18:41 | -17.59725 | 51.15724 | 34981 ft | 478 kts | 132° |
| 2026-04-28 18:41 | -17.63939 | 51.21112 | 34982 ft | 477 kts | 131° |
| 2026-04-28 18:42 | -17.68147 | 51.26499 | 34980 ft | 477 kts | 131° |
| 2026-04-28 18:42 | -17.72350 | 51.31886 | 34982 ft | 477 kts | 131° |
| 2026-04-28 18:43 | -17.76561 | 51.37287 | 34980 ft | 477 kts | 131° |
| 2026-04-28 18:43 | -17.80732 | 51.42638 | 34979 ft | 476 kts | 132° |
| 2026-04-28 18:44 | -17.84927 | 51.48027 | 34980 ft | 476 kts | 131° |
| 2026-04-28 18:44 | -17.91219 | 51.56115 | 34981 ft | 476 kts | 131° |
| 2026-04-28 18:45 | -17.95416 | 51.61514 | 34980 ft | 476 kts | 132° |
| 2026-04-28 18:45 | -17.99576 | 51.66877 | 34981 ft | 476 kts | 131° |
| 2026-04-28 18:46 | -18.03752 | 51.72275 | 34980 ft | 476 kts | 132° |
| 2026-04-28 18:46 | -18.07940 | 51.77688 | 34980 ft | 476 kts | 132° |
| 2026-04-28 18:47 | -18.12092 | 51.83049 | 34980 ft | 476 kts | 132° |
| 2026-04-28 18:47 | -18.16272 | 51.88450 | 35001 ft | 475 kts | 132° |
| 2026-04-28 18:48 | -18.20455 | 51.93859 | 35024 ft | 475 kts | 132° |
| 2026-04-28 18:48 | -18.24631 | 51.99265 | 35029 ft | 476 kts | 132° |
| 2026-04-28 18:49 | -18.28102 | 52.03759 | 35026 ft | 476 kts | 132° |
| 2026-04-28 18:49 | -18.32951 | 52.10047 | 35026 ft | 475 kts | 132° |
| 2026-04-28 18:50 | -18.37124 | 52.15466 | 35026 ft | 475 kts | 132° |
| 2026-04-28 18:50 | -18.41263 | 52.20840 | 35030 ft | 475 kts | 132° |
| 2026-04-28 18:51 | -18.45435 | 52.26264 | 35027 ft | 476 kts | 132° |
| 2026-04-28 18:51 | -18.49595 | 52.31676 | 35025 ft | 475 kts | 132° |
| 2026-04-28 18:52 | -18.53753 | 52.37107 | 35026 ft | 475 kts | 132° |
| 2026-04-28 18:52 | -18.57884 | 52.42503 | 35026 ft | 475 kts | 132° |
| 2026-04-28 18:53 | -18.62041 | 52.47929 | 35026 ft | 475 kts | 132° |
| 2026-04-28 18:53 | -18.66193 | 52.53349 | 35026 ft | 475 kts | 132° |
| 2026-04-28 18:54 | -18.70318 | 52.58742 | 35026 ft | 475 kts | 132° |
| 2026-04-28 18:54 | -18.74464 | 52.64165 | 35024 ft | 474 kts | 132° |
| 2026-04-28 18:55 | -18.77913 | 52.68676 | 35022 ft | 474 kts | 132° |
| 2026-04-28 18:55 | -18.82755 | 52.75017 | 35020 ft | 474 kts | 132° |